Time;durP1;ratioP1;P1;durP2;ratioP2;P2;SDS_P1;SDS_P2;PMS_P1;PMS_P2;Temp;Humidity;BMP_temperature;BMP_pressure;BME280_temperature;BME280_humidity;BME280_pressure;Samples;Min_cycle;Max_cycle;Signal;HPM_P1;HPM_P2
2022/10/22 00:00:26;;;;;;;;;6.00;3.00;;;;;18.15;59.62;100350.59;5095231;27;45430;-47
2022/10/22 00:02:51;;;;;;;;;2.25;2.25;;;;;18.11;59.74;100346.44;5092104;27;73919;-48
2022/10/22 00:05:17;;;;;;;;;4.75;3.25;;;;;18.10;60.13;100365.94;5098073;27;62900;-50
2022/10/22 00:07:42;;;;;;;;;6.00;3.00;;;;;18.08;59.65;100369.63;5075561;27;45494;-47
2022/10/22 00:10:08;;;;;;;;;4.00;4.00;;;;;18.08;59.88;100365.19;5081812;27;46575;-47
2022/10/22 00:12:33;;;;;;;;;4.00;2.75;;;;;18.09;59.61;100373.97;5087789;27;46354;-49
2022/10/22 00:14:59;;;;;;;;;3.00;3.00;;;;;18.09;59.77;100372.16;5087799;27;45741;-46
2022/10/22 00:17:24;;;;;;;;;3.50;2.25;;;;;18.08;59.97;100378.44;5093840;27;64606;-48
2022/10/22 00:19:49;;;;;;;;;3.75;3.50;;;;;18.08;59.91;100386.38;5096978;27;67917;-48
2022/10/22 00:22:15;;;;;;;;;3.00;3.00;;;;;18.08;59.73;100386.38;5083602;27;45339;-47
2022/10/22 00:24:40;;;;;;;;;4.25;3.00;;;;;18.05;59.86;100389.22;5096747;27;60262;-49
2022/10/22 00:27:07;;;;;;;;;5.25;3.00;;;;;18.06;59.83;100398.00;5098304;27;45356;-52
2022/10/22 00:29:33;;;;;;;;;5.25;2.00;;;;;18.05;59.73;100406.91;5070351;27;45530;-50
2022/10/22 00:31:58;;;;;;;;;5.25;4.00;;;;;18.03;59.84;100407.00;5060993;27;46174;-49
2022/10/22 00:34:24;;;;;;;;;4.75;3.75;;;;;18.00;59.97;100408.03;5090500;27;68500;-49
2022/10/22 00:36:50;;;;;;;;;6.50;6.50;;;;;17.99;59.75;100410.81;5094181;27;45503;-49
2022/10/22 00:39:18;;;;;;;;;3.50;3.00;;;;;17.97;59.90;100410.03;5096360;27;45345;-48
2022/10/22 00:41:46;;;;;;;;;4.00;3.00;;;;;17.94;60.06;100408.44;5082497;27;45748;-51
2022/10/22 00:44:49;;;;;;;;;4.25;3.00;;;;;17.95;59.83;100417.22;5073889;27;45616;-49
2022/10/22 00:47:16;;;;;;;;;2.25;1.00;;;;;17.94;60.14;100416.38;5101088;27;45326;-49
2022/10/22 00:49:41;;;;;;;;;4.50;3.00;;;;;17.95;60.05;100406.63;5099938;27;45288;-48
2022/10/22 00:52:07;;;;;;;;;5.75;2.75;;;;;17.92;60.12;100404.16;5079888;27;45361;-47
2022/10/22 00:54:33;;;;;;;;;4.50;2.25;;;;;17.93;60.27;100412.00;5096623;27;73331;-51
2022/10/22 00:56:59;;;;;;;;;5.00;2.25;;;;;17.94;60.08;100415.53;5079769;27;45245;-53
2022/10/22 00:59:24;;;;;;;;;4.00;3.50;;;;;17.94;59.83;100420.84;5094290;27;45666;-49
2022/10/22 01:01:51;;;;;;;;;5.00;2.00;;;;;17.92;59.75;100422.69;5095498;27;61816;-50
2022/10/22 01:04:17;;;;;;;;;6.00;2.00;;;;;17.91;60.05;100415.72;5094602;27;45736;-50
2022/10/22 01:06:43;;;;;;;;;3.00;1.00;;;;;17.90;59.86;100425.47;5091952;27;45486;-46
2022/10/22 01:09:17;;;;;;;;;3.75;2.50;;;;;17.91;59.87;100435.09;5087334;27;66488;-49
2022/10/22 01:12:01;;;;;;;;;2.75;1.25;;;;;17.91;59.91;100442.19;5085905;27;45441;-49
2022/10/22 01:14:54;;;;;;;;;2.50;2.25;;;;;17.90;59.75;100437.84;5070668;27;45650;-49
2022/10/22 01:17:31;;;;;;;;;1.50;1.00;;;;;17.86;59.65;100450.41;5095129;27;45516;-46
2022/10/22 01:20:30;;;;;;;;;3.50;1.00;;;;;17.84;59.56;100454.91;5085976;27;45816;-52
2022/10/22 01:23:21;;;;;;;;;2.00;1.00;;;;;17.81;59.72;100463.03;5097959;27;47548;-48
2022/10/22 01:26:08;;;;;;;;;3.00;1.00;;;;;17.79;59.68;100468.44;5096957;27;45528;-48
2022/10/22 01:28:55;;;;;;;;;1.75;1.00;;;;;17.75;59.50;100458.97;5092460;27;45516;-49
2022/10/22 01:31:22;;;;;;;;;1.50;0.00;;;;;17.76;59.63;100466.00;5088384;27;45648;-50
2022/10/22 01:33:50;;;;;;;;;3.50;1.00;;;;;17.74;59.57;100467.00;5094218;27;45248;-46
2022/10/22 01:36:17;;;;;;;;;5.00;2.75;;;;;17.73;59.57;100471.47;5084794;27;45426;-48
2022/10/22 01:38:43;;;;;;;;;2.75;1.00;;;;;17.74;59.67;100483.78;5073577;27;45445;-51
2022/10/22 01:41:09;;;;;;;;;1.75;1.00;;;;;17.76;59.37;100486.28;5097439;27;45682;-54
2022/10/22 01:43:35;;;;;;;;;1.50;1.00;;;;;17.77;59.45;100480.91;5090780;27;46144;-47
2022/10/22 01:46:02;;;;;;;;;3.50;1.00;;;;;17.78;59.32;100473.84;5093266;27;47644;-49
2022/10/22 01:49:05;;;;;;;;;3.50;1.00;;;;;17.78;59.40;100482.63;5094134;27;45450;-48
2022/10/22 01:51:47;;;;;;;;;4.25;1.00;;;;;17.80;59.46;100479.88;5079517;27;45659;-51
2022/10/22 01:54:18;;;;;;;;;3.25;1.00;;;;;17.81;59.40;100479.78;5089534;27;46338;-49
2022/10/22 01:57:07;;;;;;;;;4.00;1.00;;;;;17.84;59.36;100473.44;5098140;27;46568;-47
2022/10/22 01:59:42;;;;;;;;;2.50;1.00;;;;;17.86;59.26;100484.81;5090230;27;45535;-49
2022/10/22 02:02:22;;;;;;;;;0.00;0.00;;;;;17.87;59.28;100485.69;5095315;27;45338;-51
2022/10/22 02:05:28;;;;;;;;;1.50;1.00;;;;;17.88;59.38;100476.78;5078542;27;46281;-49
2022/10/22 02:08:16;;;;;;;;;1.00;1.00;;;;;17.88;59.33;100482.09;5095402;27;45434;-48
2022/10/22 02:10:44;;;;;;;;;1.00;1.00;;;;;17.89;59.17;100476.69;5073691;27;45395;-51
2022/10/22 02:13:14;;;;;;;;;2.50;1.50;;;;;17.91;59.27;100487.19;5080554;27;45506;-52
2022/10/22 02:15:40;;;;;;;;;1.00;1.00;;;;;17.90;59.19;100480.19;5073051;27;46493;-48
2022/10/22 02:18:08;;;;;;;;;2.50;1.50;;;;;17.92;59.03;100478.28;5077805;27;61319;-49
2022/10/22 02:20:35;;;;;;;;;1.00;1.00;;;;;17.93;59.12;100482.66;5075167;27;45473;-50
2022/10/22 02:23:01;;;;;;;;;1.00;1.00;;;;;17.93;58.96;100488.78;5061167;27;45747;-50
2022/10/22 02:25:30;;;;;;;;;3.75;2.00;;;;;17.92;59.18;100488.88;5083506;27;46316;-50
2022/10/22 02:28:24;;;;;;;;;3.75;1.00;;;;;17.91;59.27;100493.34;5094822;27;45403;-47
2022/10/22 02:30:55;;;;;;;;;1.00;1.00;;;;;17.91;59.03;100495.97;5086497;27;45492;-47
2022/10/22 02:33:25;;;;;;;;;5.00;2.00;;;;;17.90;58.96;100491.66;5067537;28;45396;-51
2022/10/22 02:35:51;;;;;;;;;1.00;0.25;;;;;17.89;58.99;100492.59;5080137;27;45339;-48
2022/10/22 02:38:16;;;;;;;;;2.00;0.75;;;;;17.89;58.95;100492.59;5074182;27;45627;-55
2022/10/22 02:40:42;;;;;;;;;1.00;1.00;;;;;17.92;59.06;100488.88;5077289;27;69311;-49
2022/10/22 02:43:07;;;;;;;;;2.50;0.25;;;;;17.93;59.00;100495.91;5094202;27;45934;-49
2022/10/22 02:45:33;;;;;;;;;3.25;1.75;;;;;17.92;59.05;100497.69;5092933;27;60315;-48
2022/10/22 02:47:59;;;;;;;;;3.50;1.00;;;;;17.92;59.19;100494.19;5070541;27;45701;-49
2022/10/22 02:50:24;;;;;;;;;1.00;1.00;;;;;17.91;59.02;100484.56;5089950;27;45308;-50
2022/10/22 02:52:50;;;;;;;;;3.00;1.00;;;;;17.92;59.32;100499.47;5053475;27;45707;-48
2022/10/22 02:55:15;;;;;;;;;2.25;1.75;;;;;17.93;59.43;100517.06;5090394;27;74443;-46
2022/10/22 02:57:40;;;;;;;;;3.75;2.00;;;;;17.94;58.92;100518.78;5093248;27;54704;-48
2022/10/22 03:00:08;;;;;;;;;2.00;2.00;;;;;17.94;59.40;100522.28;5094013;27;66590;-48
2022/10/22 03:02:33;;;;;;;;;3.00;2.00;;;;;17.94;59.20;100524.09;5077056;27;45519;-49
2022/10/22 03:04:58;;;;;;;;;1.00;1.00;;;;;17.93;59.19;100531.16;5095212;27;70575;-51
2022/10/22 03:07:24;;;;;;;;;2.00;2.00;;;;;17.93;59.43;100522.38;5096912;27;66358;-50
2022/10/22 03:09:49;;;;;;;;;5.75;2.50;;;;;17.93;59.21;100533.81;5094458;27;50398;-49
2022/10/22 03:12:14;;;;;;;;;3.50;2.00;;;;;17.94;59.29;100532.03;5090134;27;45415;-49
2022/10/22 03:14:40;;;;;;;;;2.25;1.00;;;;;17.94;59.25;100530.22;5094336;27;72559;-48
2022/10/22 03:17:05;;;;;;;;;3.00;1.00;;;;;17.96;59.51;100527.50;5097358;27;63590;-50
2022/10/22 03:19:30;;;;;;;;;2.00;1.00;;;;;17.94;59.56;100532.03;5091960;27;59620;-50
2022/10/22 03:21:59;;;;;;;;;2.50;1.00;;;;;17.95;59.18;100541.66;5078805;27;45437;-51
2022/10/22 03:24:30;;;;;;;;;3.25;2.00;;;;;17.95;59.33;100545.16;5087996;27;46569;-48
2022/10/22 03:26:56;;;;;;;;;3.00;2.00;;;;;17.95;59.60;100546.94;5084187;27;45773;-49
2022/10/22 03:29:23;;;;;;;;;2.75;2.00;;;;;17.89;59.41;100539.41;5087832;27;47005;-48
2022/10/22 03:31:48;;;;;;;;;2.00;0.75;;;;;17.93;59.51;100549.69;5088604;27;47281;-52
2022/10/22 03:34:14;;;;;;;;;2.00;0.25;;;;;17.91;59.49;100554.22;5068673;27;46165;-49
2022/10/22 03:36:40;;;;;;;;;1.00;1.00;;;;;17.90;59.51;100549.03;5079114;27;50459;-50
2022/10/22 03:39:06;;;;;;;;;3.75;1.00;;;;;17.90;59.45;100555.19;5086095;27;45220;-49
2022/10/22 03:41:32;;;;;;;;;3.50;2.00;;;;;17.90;59.31;100563.13;5096701;27;45463;-48
2022/10/22 03:43:59;;;;;;;;;4.00;1.00;;;;;17.88;59.49;100557.06;5091442;27;45409;-48
2022/10/22 03:46:25;;;;;;;;;2.00;1.00;;;;;17.89;59.42;100569.34;5076445;27;45392;-48
2022/10/22 03:48:50;;;;;;;;;3.00;1.00;;;;;17.92;59.60;100565.66;5076078;27;66459;-53
2022/10/22 03:51:16;;;;;;;;;1.50;0.00;;;;;17.90;59.70;100568.44;5078460;27;45427;-51
2022/10/22 03:53:41;;;;;;;;;1.00;1.00;;;;;17.91;59.69;100570.13;5080222;27;46821;-49
2022/10/22 03:56:09;;;;;;;;;2.00;2.00;;;;;17.90;59.38;100568.44;5094501;27;60508;-48
2022/10/22 03:58:35;;;;;;;;;2.00;2.00;;;;;17.90;59.56;100571.06;5083604;27;45352;-47
2022/10/22 04:01:08;;;;;;;;;6.75;1.50;;;;;17.92;59.62;100578.91;5095070;27;45432;-47
2022/10/22 04:03:34;;;;;;;;;1.25;1.00;;;;;17.92;59.69;100577.13;5089183;27;46294;-47
2022/10/22 04:06:10;;;;;;;;;4.00;1.50;;;;;17.92;59.72;100582.41;5096142;27;45496;-50
2022/10/22 04:08:37;;;;;;;;;1.25;1.25;;;;;17.93;59.77;100580.63;5080854;27;45416;-48
2022/10/22 04:11:03;;;;;;;;;1.00;0.50;;;;;17.93;59.44;100585.91;5098593;27;45228;-52
2022/10/22 04:13:28;;;;;;;;;1.00;0.00;;;;;17.94;59.76;100590.28;5074213;27;46159;-53
2022/10/22 04:15:54;;;;;;;;;2.25;1.00;;;;;17.93;59.54;100596.50;5079930;27;61973;-47
2022/10/22 04:18:20;;;;;;;;;5.00;0.75;;;;;17.91;59.87;100593.94;5081406;27;45661;-47
2022/10/22 04:20:46;;;;;;;;;1.00;1.00;;;;;17.89;59.51;100593.19;5075862;27;45457;-47
2022/10/22 04:23:12;;;;;;;;;2.00;1.00;;;;;17.87;59.77;100597.72;5098811;27;46487;-48
2022/10/22 04:25:37;;;;;;;;;1.00;1.00;;;;;17.88;59.69;100598.56;5096118;27;45415;-47
2022/10/22 04:28:07;;;;;;;;;3.00;1.00;;;;;17.88;59.72;100607.34;5091755;27;45449;-47
2022/10/22 04:30:32;;;;;;;;;2.25;1.50;;;;;17.86;59.86;100598.66;5085946;27;46039;-47
2022/10/22 04:32:57;;;;;;;;;2.00;2.00;;;;;17.89;59.93;100601.13;5082121;27;47137;-51
2022/10/22 04:35:23;;;;;;;;;1.50;1.00;;;;;17.89;59.77;100601.13;5091879;27;67337;-46
2022/10/22 04:37:48;;;;;;;;;3.00;1.00;;;;;17.88;59.58;100599.41;5099688;27;58587;-47
2022/10/22 04:40:13;;;;;;;;;4.00;2.00;;;;;17.89;59.89;100603.78;5078729;27;70509;-47
2022/10/22 04:42:39;;;;;;;;;1.00;1.00;;;;;17.90;59.55;100616.09;5089223;27;50635;-49
2022/10/22 04:45:04;;;;;;;;;1.00;1.00;;;;;17.91;59.55;100614.28;5082042;27;45280;-50
2022/10/22 04:47:30;;;;;;;;;2.50;1.75;;;;;17.90;59.73;100613.44;5098183;27;45506;-47
2022/10/22 04:49:55;;;;;;;;;0.50;0.50;;;;;17.90;59.44;100617.84;5095087;27;45465;-50
2022/10/22 04:52:20;;;;;;;;;2.50;1.00;;;;;17.89;59.58;100624.13;5071638;27;45924;-52
2022/10/22 04:54:46;;;;;;;;;1.25;1.25;;;;;17.88;59.76;100617.09;5098450;27;45306;-49
2022/10/22 04:57:13;;;;;;;;;4.25;1.00;;;;;17.88;59.85;100623.25;5061860;27;45614;-53
2022/10/22 04:59:38;;;;;;;;;1.75;1.00;;;;;17.87;59.74;100620.72;5097835;27;45491;-51
2022/10/22 05:02:04;;;;;;;;;2.50;1.00;;;;;17.88;59.51;100632.97;5098309;27;45339;-51
2022/10/22 05:04:29;;;;;;;;;3.75;1.00;;;;;17.88;59.93;100632.97;5081666;27;45459;-49
2022/10/22 05:06:55;;;;;;;;;4.00;2.00;;;;;17.90;59.71;100631.09;5069400;27;45546;-49
2022/10/22 05:09:20;;;;;;;;;3.00;2.00;;;;;17.91;59.87;100630.16;5096778;27;45497;-49
2022/10/22 05:11:48;;;;;;;;;3.25;2.00;;;;;17.89;59.84;100634.69;5073488;27;45701;-50
2022/10/22 05:14:16;;;;;;;;;3.50;2.00;;;;;17.91;59.64;100638.94;5078556;27;45628;-50
2022/10/22 05:16:42;;;;;;;;;3.50;1.25;;;;;17.92;59.82;100642.44;5081468;27;45459;-49
2022/10/22 05:19:07;;;;;;;;;3.00;2.00;;;;;17.92;59.67;100640.66;5079726;27;45276;-49
2022/10/22 05:21:33;;;;;;;;;3.00;1.50;;;;;17.93;59.75;100639.69;5080566;27;46040;-48
2022/10/22 05:23:58;;;;;;;;;1.25;1.00;;;;;17.92;59.65;100640.66;5100806;27;45398;-48
2022/10/22 05:26:24;;;;;;;;;6.50;1.00;;;;;17.92;59.73;100647.72;5074292;27;45439;-52
2022/10/22 05:28:50;;;;;;;;;2.00;2.00;;;;;17.92;60.05;100645.97;5094409;27;45429;-50
2022/10/22 05:31:16;;;;;;;;;2.25;1.00;;;;;17.93;60.08;100644.16;5092862;27;45316;-51
2022/10/22 05:33:42;;;;;;;;;3.75;1.00;;;;;17.92;59.78;100643.31;5080099;27;45189;-51
2022/10/22 05:36:11;;;;;;;;;4.50;2.00;;;;;17.89;59.84;100656.72;5079057;28;45624;-48
2022/10/22 05:38:37;;;;;;;;;2.50;1.00;;;;;17.87;59.95;100658.63;5096430;27;45477;-51
2022/10/22 05:41:06;;;;;;;;;2.25;2.00;;;;;17.87;60.22;100649.84;5078439;27;72709;-53
2022/10/22 05:43:31;;;;;;;;;5.00;2.00;;;;;17.88;60.12;100668.25;5074697;27;45448;-53
2022/10/22 05:46:04;;;;;;;;;3.50;1.25;;;;;17.90;60.22;100668.16;5100536;27;45266;-51
2022/10/22 05:48:30;;;;;;;;;4.00;2.00;;;;;17.91;60.09;100664.59;5046893;27;45683;-48
2022/10/22 05:50:56;;;;;;;;;2.75;2.75;;;;;17.90;60.14;100662.88;5090839;27;45911;-52
2022/10/22 05:53:21;;;;;;;;;5.75;2.00;;;;;17.91;60.01;100661.94;5096715;27;45389;-51
2022/10/22 05:55:47;;;;;;;;;5.75;1.00;;;;;17.92;60.00;100656.56;5099921;27;45364;-49
2022/10/22 05:58:12;;;;;;;;;3.50;2.00;;;;;17.92;60.08;100658.31;5088941;27;71494;-47
2022/10/22 06:00:38;;;;;;;;;2.75;2.00;;;;;17.90;59.93;100671.69;5099916;27;46298;-47
2022/10/22 06:03:04;;;;;;;;;3.25;3.00;;;;;17.87;60.10;100668.34;5099545;27;45388;-47
2022/10/22 06:05:29;;;;;;;;;2.00;2.00;;;;;17.83;59.90;100668.50;5097936;27;45424;-47
2022/10/22 06:07:55;;;;;;;;;5.00;3.00;;;;;17.79;60.04;100664.31;5094275;27;45545;-46
2022/10/22 06:10:21;;;;;;;;;2.00;1.50;;;;;17.79;60.19;100666.94;5099053;27;46368;-53
2022/10/22 06:12:47;;;;;;;;;0.00;0.00;;;;;17.78;60.19;100669.72;5062474;27;45418;-51
2022/10/22 06:15:17;;;;;;;;;4.00;2.00;;;;;17.75;60.07;100665.44;5089808;27;45501;-50
2022/10/22 06:17:46;;;;;;;;;2.00;2.00;;;;;17.73;60.33;100669.97;5096615;27;45487;-48
2022/10/22 06:20:12;;;;;;;;;3.00;1.00;;;;;17.71;60.27;100669.22;5097082;27;46442;-48
2022/10/22 06:22:38;;;;;;;;;2.00;1.25;;;;;17.70;60.28;100678.09;5081374;27;45629;-47
2022/10/22 06:25:04;;;;;;;;;2.25;1.50;;;;;17.71;60.51;100682.44;5077926;28;45325;-50
2022/10/22 06:27:30;;;;;;;;;3.75;2.00;;;;;17.72;60.41;100685.94;5079636;27;45344;-52
2022/10/22 06:29:55;;;;;;;;;3.25;1.00;;;;;17.72;60.52;100686.78;5095309;27;47238;-51
2022/10/22 06:32:20;;;;;;;;;2.50;2.00;;;;;17.71;60.38;100687.75;5097285;27;71879;-50
2022/10/22 06:34:47;;;;;;;;;3.25;2.50;;;;;17.69;60.18;100688.75;5095433;27;61581;-50
2022/10/22 06:37:14;;;;;;;;;4.50;3.25;;;;;17.65;60.60;100690.72;5082770;27;45469;-47
2022/10/22 06:39:39;;;;;;;;;6.00;2.50;;;;;17.66;60.57;100692.44;5081955;27;47101;-50
2022/10/22 06:42:05;;;;;;;;;2.00;2.00;;;;;17.67;60.63;100702.09;5077186;27;45412;-50
2022/10/22 06:44:30;;;;;;;;;3.00;1.00;;;;;17.67;60.65;100699.47;5099386;27;59947;-50
2022/10/22 06:46:55;;;;;;;;;3.00;2.00;;;;;17.64;60.46;100710.22;5097676;27;45501;-49
2022/10/22 06:49:21;;;;;;;;;5.00;3.25;;;;;17.62;60.65;100714.75;5098176;27;45922;-51
2022/10/22 06:51:53;;;;;;;;;7.50;2.75;;;;;17.59;60.28;100709.63;5088951;27;45383;-51
2022/10/22 06:54:20;;;;;;;;;3.75;1.25;;;;;17.60;60.81;100727.19;5079355;28;45319;-51
2022/10/22 06:56:45;;;;;;;;;5.50;3.00;;;;;17.58;60.84;100719.34;5092097;27;45547;-53
2022/10/22 06:59:11;;;;;;;;;5.00;4.00;;;;;17.60;60.66;100732.47;5100986;27;46899;-49
2022/10/22 07:01:37;;;;;;;;;3.00;2.00;;;;;17.61;60.71;100728.91;5061691;27;45438;-48
2022/10/22 07:04:03;;;;;;;;;5.75;2.75;;;;;17.61;60.66;100721.81;5099430;27;45455;-47
2022/10/22 07:06:29;;;;;;;;;5.25;3.00;;;;;17.65;60.51;100733.06;5095315;27;45311;-49
2022/10/22 07:08:56;;;;;;;;;4.00;2.00;;;;;17.65;60.64;100739.22;5084286;27;45534;-48
2022/10/22 07:11:22;;;;;;;;;6.25;3.75;;;;;17.62;60.46;100738.56;5063122;27;45361;-49
2022/10/22 07:13:48;;;;;;;;;4.75;2.00;;;;;17.61;60.65;100742.13;5079920;27;45494;-49
2022/10/22 07:16:14;;;;;;;;;3.25;2.00;;;;;17.61;60.78;100747.41;5074960;27;45360;-50
2022/10/22 07:18:40;;;;;;;;;3.00;2.25;;;;;17.61;60.73;100750.06;5094784;27;45830;-48
2022/10/22 07:21:07;;;;;;;;;3.50;2.50;;;;;17.61;60.67;100747.41;5096220;27;45461;-51
2022/10/22 07:23:32;;;;;;;;;6.00;3.00;;;;;17.63;60.75;100753.47;5097328;27;45446;-47
2022/10/22 07:25:58;;;;;;;;;7.25;3.25;;;;;17.65;60.82;100759.53;5098753;27;45536;-48
2022/10/22 07:28:23;;;;;;;;;5.00;3.75;;;;;17.65;60.77;100757.75;5091098;27;45449;-47
2022/10/22 07:30:49;;;;;;;;;5.75;3.75;;;;;17.67;60.88;100762.97;5050755;27;45284;-51
2022/10/22 07:33:14;;;;;;;;;5.50;3.75;;;;;17.68;60.87;100763.81;5070174;27;61717;-52
2022/10/22 07:35:40;;;;;;;;;4.50;2.75;;;;;17.70;60.83;100761.94;5064444;27;71889;-50
2022/10/22 07:38:06;;;;;;;;;6.25;4.50;;;;;17.69;60.54;100763.72;5092218;27;45455;-48
2022/10/22 07:40:32;;;;;;;;;6.50;4.25;;;;;17.68;60.46;100763.81;5085172;27;45594;-49
2022/10/22 07:42:57;;;;;;;;;4.75;3.00;;;;;17.69;60.67;100766.38;5075873;27;45521;-49
2022/10/22 07:45:22;;;;;;;;;5.00;4.00;;;;;17.70;60.69;100768.06;5094822;27;45440;-49
2022/10/22 07:47:48;;;;;;;;;5.25;3.75;;;;;17.73;60.53;100769.72;5093797;27;72529;-50
2022/10/22 07:50:14;;;;;;;;;4.25;3.00;;;;;17.74;60.59;100768.75;5080244;27;66696;-51
2022/10/22 07:52:39;;;;;;;;;3.00;3.00;;;;;17.75;60.65;100779.25;5096194;27;45220;-49
2022/10/22 07:55:05;;;;;;;;;3.75;3.00;;;;;17.76;60.38;100777.44;5090669;27;68680;-50
2022/10/22 07:57:30;;;;;;;;;5.00;3.00;;;;;17.76;60.48;100773.03;5073587;27;48752;-49
2022/10/22 07:59:57;;;;;;;;;7.75;4.25;;;;;17.79;60.54;100764.06;5092382;27;45336;-49
2022/10/22 08:02:22;;;;;;;;;3.00;2.00;;;;;17.80;60.38;100773.72;5097510;27;45447;-50
2022/10/22 08:04:48;;;;;;;;;5.00;3.00;;;;;17.84;60.62;100783.19;5092242;27;45240;-47
2022/10/22 08:07:13;;;;;;;;;6.75;3.50;;;;;17.87;60.72;100791.00;5095585;27;45914;-53
2022/10/22 08:09:39;;;;;;;;;4.50;2.25;;;;;17.88;60.21;100792.69;5091627;27;47190;-49
2022/10/22 08:12:04;;;;;;;;;3.50;2.00;;;;;17.91;60.38;100791.66;5101627;27;45313;-52
2022/10/22 08:14:30;;;;;;;;;6.25;4.00;;;;;17.91;60.53;100789.03;5090740;27;45383;-51
2022/10/22 08:16:55;;;;;;;;;5.50;3.00;;;;;17.95;60.33;100795.84;5078739;27;48078;-51
2022/10/22 08:19:21;;;;;;;;;2.00;2.00;;;;;17.97;60.26;100791.31;5076382;27;60987;-49
2022/10/22 08:21:47;;;;;;;;;8.75;8.75;;;;;18.00;60.29;100797.28;5095499;27;45363;-49
2022/10/22 08:24:13;;;;;;;;;11.50;8.25;;;;;18.03;60.47;100801.56;5092328;27;46076;-50
2022/10/22 08:26:38;;;;;;;;;11.00;6.75;;;;;18.06;60.34;100800.50;5084756;27;45675;-46
2022/10/22 08:29:04;;;;;;;;;13.25;11.75;;;;;18.08;59.92;100803.94;5064576;27;45265;-50
2022/10/22 08:31:29;;;;;;;;;3.00;2.25;;;;;18.13;60.11;100809.81;5095148;27;45322;-51
2022/10/22 08:33:55;;;;;;;;;5.50;5.00;;;;;18.12;60.19;100798.38;5086464;27;71537;-52
2022/10/22 08:36:20;;;;;;;;;6.25;5.25;;;;;18.14;60.07;100793.84;5073254;27;71431;-54
2022/10/22 08:38:45;;;;;;;;;9.00;4.25;;;;;18.16;59.97;100799.91;5095277;27;59002;-53
2022/10/22 08:41:13;;;;;;;;;3.25;2.00;;;;;18.19;59.88;100801.53;5084910;27;45464;-54
2022/10/22 08:44:04;;;;;;;;;7.00;2.00;;;;;18.22;60.04;100809.31;5068073;27;45464;-54
2022/10/22 08:46:47;;;;;;;;;5.75;3.50;;;;;18.25;59.71;100800.31;5089256;27;46542;-54
2022/10/22 08:49:19;;;;;;;;;11.50;9.25;;;;;18.27;59.57;100803.72;5061368;28;45474;-52
2022/10/22 08:51:45;;;;;;;;;9.00;6.00;;;;;18.29;59.68;100791.25;5090410;27;45495;-52
2022/10/22 08:54:22;;;;;;;;;10.00;6.50;;;;;18.30;59.88;100801.75;5099021;27;70635;-52
2022/10/22 08:56:56;;;;;;;;;8.75;5.75;;;;;18.33;59.45;100809.53;5077092;27;46067;-50
2022/10/22 08:59:48;;;;;;;;;7.50;6.25;;;;;18.37;59.51;100807.56;5100263;27;45291;-50
2022/10/22 09:02:34;;;;;;;;;4.00;3.25;;;;;18.38;59.58;100812.75;5059391;27;45357;-50
2022/10/22 09:05:30;;;;;;;;;3.50;3.00;;;;;18.43;59.54;100808.97;5085055;27;45380;-51
2022/10/22 09:07:56;;;;;;;;;5.75;3.00;;;;;18.46;59.56;100812.31;5092955;27;48840;-51
2022/10/22 09:10:25;;;;;;;;;7.00;5.25;;;;;18.50;59.47;100808.56;5080582;27;71684;-52
2022/10/22 09:12:50;;;;;;;;;1.00;1.00;;;;;18.53;59.22;100811.00;5059405;27;45568;-50
2022/10/22 09:15:18;;;;;;;;;9.50;6.00;;;;;18.58;59.56;100808.09;5094295;27;66468;-52
2022/10/22 09:18:13;;;;;;;;;8.75;5.00;;;;;18.60;59.12;100817.63;5094983;27;46128;-48
2022/10/22 09:20:48;;;;;;;;;7.75;4.75;;;;;18.63;59.45;100813.97;5093896;27;45597;-49
2022/10/22 09:23:46;;;;;;;;;7.00;4.00;;;;;18.67;59.08;100812.84;5101657;27;45349;-50
2022/10/22 09:26:13;;;;;;;;;7.50;4.00;;;;;18.70;59.03;100811.81;5094835;27;45376;-48
2022/10/22 09:28:39;;;;;;;;;6.50;3.25;;;;;18.73;58.96;100811.59;5088439;27;46086;-48
2022/10/22 09:31:12;;;;;;;;;6.00;3.00;;;;;18.77;59.20;100816.66;5090759;27;71291;-50
2022/10/22 09:33:39;;;;;;;;;4.75;3.25;;;;;18.78;58.78;100820.97;5097874;27;45304;-51
2022/10/22 09:36:06;;;;;;;;;4.50;3.00;;;;;18.82;58.61;100816.38;5078830;28;45482;-48
2022/10/22 09:38:52;;;;;;;;;3.75;3.00;;;;;18.86;58.87;100809.97;5075987;28;47505;-49
2022/10/22 09:41:19;;;;;;;;;5.50;4.00;;;;;18.89;58.61;100809.78;5093287;27;45331;-50
2022/10/22 09:43:48;;;;;;;;;3.00;2.00;;;;;18.92;58.53;100812.22;5080004;27;45316;-51
2022/10/22 09:46:16;;;;;;;;;5.00;5.00;;;;;18.93;58.37;100813.94;5089253;27;70531;-51
2022/10/22 09:48:46;;;;;;;;;10.00;5.00;;;;;18.97;58.53;100809.31;5095646;27;46213;-52
2022/10/22 09:51:20;;;;;;;;;3.75;3.75;;;;;19.01;58.56;100800.22;5074487;27;45703;-53
2022/10/22 09:53:54;;;;;;;;;3.50;2.25;;;;;19.02;58.52;100804.59;5082958;27;45205;-50
2022/10/22 09:56:26;;;;;;;;;7.50;5.00;;;;;19.06;58.42;100799.94;5095289;27;45533;-52
2022/10/22 09:58:55;;;;;;;;;5.75;3.75;;;;;19.10;58.27;100799.63;5090234;27;45455;-52
2022/10/22 10:01:25;;;;;;;;;5.00;5.00;;;;;19.14;58.19;100805.59;5097760;27;45638;-52
2022/10/22 10:03:50;;;;;;;;;6.00;4.00;;;;;19.14;58.44;100803.81;5101201;27;45371;-48
2022/10/22 10:06:20;;;;;;;;;5.50;3.25;;;;;19.18;58.41;100803.66;5093269;27;70688;-48
2022/10/22 10:08:46;;;;;;;;;8.50;3.50;;;;;19.23;58.55;100804.19;5090821;27;46490;-50
2022/10/22 10:11:39;;;;;;;;;5.00;3.00;;;;;19.26;58.23;100804.84;5080886;27;45610;-48
2022/10/22 10:14:12;;;;;;;;;8.75;4.00;;;;;19.28;58.45;100796.78;5087321;27;45270;-49
2022/10/22 10:16:48;;;;;;;;;7.50;5.00;;;;;19.33;58.25;100800.84;5074755;28;45496;-53
2022/10/22 10:19:19;;;;;;;;;8.75;4.50;;;;;19.36;58.47;100810.44;5077977;27;45375;-48
2022/10/22 10:22:01;;;;;;;;;10.75;6.00;;;;;19.39;58.54;100815.56;5094085;27;45298;-49
2022/10/22 10:25:04;;;;;;;;;6.00;5.00;;;;;19.43;58.19;100809.09;5075884;27;45473;-48
2022/10/22 10:27:42;;;;;;;;;6.00;3.00;;;;;19.45;57.97;100809.84;5094535;27;45254;-48
2022/10/22 10:30:15;;;;;;;;;11.00;6.25;;;;;19.49;58.26;100811.34;5069515;27;45443;-50
2022/10/22 10:33:07;;;;;;;;;8.50;5.25;;;;;19.54;58.45;100808.44;5094142;27;45260;-49
2022/10/22 10:35:54;;;;;;;;;4.00;4.00;;;;;19.59;57.97;100811.66;5081366;27;45351;-49
2022/10/22 10:38:39;;;;;;;;;11.50;5.00;;;;;19.59;57.89;100803.69;5081993;27;45285;-52
2022/10/22 10:41:18;;;;;;;;;5.00;4.25;;;;;19.63;57.93;100812.31;5051842;28;47358;-53
2022/10/22 10:43:52;;;;;;;;;9.50;8.00;;;;;19.67;57.88;100816.44;5064414;27;45524;-49
2022/10/22 10:46:43;;;;;;;;;5.50;4.50;;;;;19.71;58.03;100815.31;5095434;27;45284;-49
2022/10/22 10:49:16;;;;;;;;;8.75;4.25;;;;;19.73;57.76;100824.91;5071423;27;45527;-49
2022/10/22 10:52:05;;;;;;;;;7.50;3.25;;;;;19.77;57.93;100820.25;5098700;27;46405;-47
2022/10/22 10:54:42;;;;;;;;;0.50;0.50;;;;;19.82;57.85;100814.66;5097008;27;45219;-49
2022/10/22 10:57:21;;;;;;;;;3.25;3.25;;;;;19.83;57.60;100811.03;5092102;27;45439;-48
2022/10/22 11:00:18;;;;;;;;;8.50;6.00;;;;;19.88;57.58;100817.78;5078538;27;45463;-50
2022/10/22 11:03:13;;;;;;;;;7.25;5.00;;;;;19.92;57.56;100810.47;5094887;27;46236;-49
2022/10/22 11:05:41;;;;;;;;;7.50;5.00;;;;;19.95;57.74;100820.03;5092304;27;45336;-52
2022/10/22 11:08:30;;;;;;;;;7.00;5.50;;;;;20.00;57.42;100812.63;5078516;28;45269;-48
2022/10/22 11:11:16;;;;;;;;;6.50;3.00;;;;;20.02;57.31;100810.72;5081912;27;45512;-47
2022/10/22 11:14:18;;;;;;;;;4.75;3.25;;;;;20.04;57.00;100807.00;5082479;27;48160;-49
2022/10/22 11:16:44;;;;;;;;;6.00;4.50;;;;;20.08;57.28;100816.47;5038359;27;45878;-48
2022/10/22 11:19:24;;;;;;;;;5.25;5.25;;;;;20.12;57.47;100818.94;5072095;27;45574;-49
2022/10/22 11:21:50;;;;;;;;;5.50;5.25;;;;;20.15;57.44;100811.63;5078921;27;45370;-51
2022/10/22 11:24:20;;;;;;;;;9.33;5.67;;;;;20.19;56.92;100821.06;5081686;27;47085;-49
2022/10/22 11:27:22;;;;;;;;;8.75;7.75;;;;;20.23;57.34;100814.59;5077155;27;45881;-49
2022/10/22 11:29:53;;;;;;;;;8.25;6.25;;;;;20.26;57.11;100822.38;5040230;27;45425;-50
2022/10/22 11:32:20;;;;;;;;;10.25;7.50;;;;;20.30;57.45;100810.56;5081952;27;45354;-50
2022/10/22 11:34:49;;;;;;;;;11.25;8.00;;;;;20.35;57.28;100812.09;5096188;27;46502;-47
2022/10/22 11:37:15;;;;;;;;;9.25;6.50;;;;;20.37;57.27;100811.03;5085991;27;45760;-51